Time,TemperatureF,DewpointF,PressureIn,WindDirection,WindDirectionDegrees,WindSpeedMPH,WindSpeedGustMPH,Humidity,HourlyPrecipIn,Conditions,Clouds,dailyrainin,SoftwareType,DateUTC
2013-09-14 00:00:00,51.8,48.1,29.86,South,191,0.0,1.0,87,0.00,CLR,,0.00,WeatherDisplay:10.37,2013-09-14 04:00:00,
2013-09-14 00:15:00,51.5,47.8,29.86,SSW,192,0.0,2.0,87,0.00,CLR,,0.00,WeatherDisplay:10.37,2013-09-14 04:15:00,
2013-09-14 00:30:00,51.2,47.5,29.87,SSW,192,0.0,0.0,87,0.00,CLR,,0.00,WeatherDisplay:10.37,2013-09-14 04:30:00,
2013-09-14 00:45:00,50.9,47.1,29.86,SSW,192,0.0,0.0,87,0.00,FEW,,0.00,WeatherDisplay:10.37,2013-09-14 04:45:00,
2013-09-14 01:00:00,50.5,46.8,29.86,SSW,192,0.0,0.0,87,0.00,FEW,,0.00,WeatherDisplay:10.37,2013-09-14 05:00:00,
2013-09-14 01:15:00,50.1,46.4,29.86,SSW,192,0.0,0.0,87,0.00,FEW,,0.00,WeatherDisplay:10.37,2013-09-14 05:15:00,
2013-09-14 01:30:00,49.7,46.0,29.86,SSW,192,0.0,0.0,87,0.00,FEW,,0.00,WeatherDisplay:10.37,2013-09-14 05:30:00,
2013-09-14 01:45:00,49.4,45.7,29.86,SSW,192,0.0,0.0,87,0.00,CLR,,0.00,WeatherDisplay:10.37,2013-09-14 05:45:00,
2013-09-14 02:00:00,49.1,45.4,29.86,SSW,192,0.0,0.0,87,0.00,CLR,,0.00,WeatherDisplay:10.37,2013-09-14 06:00:00,
2013-09-14 02:15:00,48.8,45.4,29.87,SSW,192,0.0,1.0,88,0.00,CLR,,0.00,WeatherDisplay:10.37,2013-09-14 06:15:00,
2013-09-14 02:30:00,48.6,45.2,29.87,SSW,192,0.0,0.0,88,0.00,CLR,,0.00,WeatherDisplay:10.37,2013-09-14 06:30:00,
2013-09-14 02:45:00,48.5,45.1,29.87,SSW,192,0.0,0.0,88,0.00,CLR,,0.00,WeatherDisplay:10.37,2013-09-14 06:45:00,
2013-09-14 03:00:00,48.3,44.9,29.87,SSW,192,0.0,0.0,88,0.00,CLR,,0.00,WeatherDisplay:10.37,2013-09-14 07:00:00,
2013-09-14 03:15:00,48.1,44.7,29.88,SSW,192,0.0,0.0,88,0.00,CLR,,0.00,WeatherDisplay:10.37,2013-09-14 07:15:00,
2013-09-14 03:30:00,47.7,44.3,29.87,SSW,192,0.0,0.0,88,0.00,CLR,,0.00,WeatherDisplay:10.37,2013-09-14 07:30:00,
2013-09-14 03:45:00,47.4,44.0,29.87,SSW,192,0.0,0.0,88,0.00,FEW,,0.00,WeatherDisplay:10.37,2013-09-14 07:45:00,
2013-09-14 04:00:00,47.1,43.8,29.86,SSW,192,0.0,0.0,88,0.00,FEW,,0.00,WeatherDisplay:10.37,2013-09-14 08:00:00,
2013-09-14 04:15:00,46.9,43.5,29.87,SSW,192,0.0,0.0,88,0.00,FEW,,0.00,WeatherDisplay:10.37,2013-09-14 08:15:00,
2013-09-14 04:30:00,46.7,43.3,29.88,SSW,192,0.0,0.0,88,0.00,FEW,,0.00,WeatherDisplay:10.37,2013-09-14 08:30:00,
2013-09-14 04:45:00,46.4,43.0,29.88,SSW,192,0.0,0.0,88,0.00,FEW,,0.00,WeatherDisplay:10.37,2013-09-14 08:45:00,
2013-09-14 05:00:00,46.4,43.0,29.88,SSW,192,0.0,0.0,88,0.00,FEW,,0.00,WeatherDisplay:10.37,2013-09-14 09:00:00,
2013-09-14 05:15:00,46.3,42.9,29.88,SSW,192,0.0,0.0,88,0.00,FEW,,0.00,WeatherDisplay:10.37,2013-09-14 09:15:00,
2013-09-14 05:30:00,46.0,42.6,29.88,SSW,192,0.0,0.0,88,0.00,FEW,,0.00,WeatherDisplay:10.37,2013-09-14 09:30:00,
2013-09-14 05:45:00,45.9,42.5,29.89,SSW,192,0.0,0.0,88,0.00,CLR,,0.00,WeatherDisplay:10.37,2013-09-14 09:45:00,
2013-09-14 06:00:00,45.8,42.4,29.89,SSW,192,0.0,0.0,88,0.00,CLR,,0.00,WeatherDisplay:10.37,2013-09-14 10:00:00,
2013-09-14 06:15:00,45.6,42.6,29.90,SSW,192,0.0,0.0,89,0.00,CLR,,0.00,WeatherDisplay:10.37,2013-09-14 10:15:00,
2013-09-14 06:30:00,45.5,42.4,29.91,SSW,192,0.0,0.0,89,0.00,CLR,,0.00,WeatherDisplay:10.37,2013-09-14 10:30:00,
2013-09-14 06:45:00,45.2,42.2,29.91,SSW,192,0.0,0.0,89,0.00,SCT,,0.00,WeatherDisplay:10.37,2013-09-14 10:45:00,
2013-09-14 07:00:00,45.1,42.0,29.92,SSW,192,0.0,0.0,89,0.00,SCT,,0.00,WeatherDisplay:10.37,2013-09-14 11:00:00,
2013-09-14 07:15:00,45.1,42.1,29.92,SSW,192,0.0,0.0,89,0.00,SCT,,0.00,WeatherDisplay:10.37,2013-09-14 11:15:00,
2013-09-14 07:30:00,45.0,42.0,29.94,SSW,192,0.0,0.0,89,0.00,SCT,,0.00,WeatherDisplay:10.37,2013-09-14 11:30:00,
2013-09-14 07:45:00,44.8,41.8,29.95,SSW,192,0.0,0.0,89,0.00,BKN,,0.00,WeatherDisplay:10.37,2013-09-14 11:45:00,
2013-09-14 08:00:00,44.9,41.9,29.95,SSW,192,0.0,0.0,89,0.00,BKN,,0.00,WeatherDisplay:10.37,2013-09-14 12:00:00,
2013-09-14 08:15:00,45.4,42.3,29.96,SSW,192,0.0,0.0,89,0.00,BKN,,0.00,WeatherDisplay:10.37,2013-09-14 12:15:00,
2013-09-14 08:30:00,46.3,43.2,29.97,SSW,192,0.0,0.0,89,0.00,BKN,,0.00,WeatherDisplay:10.37,2013-09-14 12:30:00,
2013-09-14 08:45:00,47.1,44.1,29.97,SSW,192,0.0,0.0,89,0.00,BKN,,0.00,WeatherDisplay:10.37,2013-09-14 12:45:00,
2013-09-14 09:00:00,48.5,45.4,29.98,SSW,192,0.0,1.0,89,0.00,BKN,,0.00,WeatherDisplay:10.37,2013-09-14 13:00:00,
2013-09-14 09:15:00,50.4,47.2,29.98,SSW,192,0.0,2.0,89,0.00,BKN,,0.00,WeatherDisplay:10.37,2013-09-14 13:15:00,
2013-09-14 09:30:00,52.2,49.0,29.98,SSW,192,0.0,2.0,89,0.00,BKN,,0.00,WeatherDisplay:10.37,2013-09-14 13:30:00,
2013-09-14 09:45:00,53.0,49.8,29.98,ENE,61,3.0,5.0,89,0.00,BKN,,0.00,WeatherDisplay:10.37,2013-09-14 13:45:00,
2013-09-14 10:00:00,54.2,50.7,29.98,ENE,62,1.0,4.0,88,0.00,BKN,,0.00,WeatherDisplay:10.37,2013-09-14 14:00:00,
2013-09-14 10:15:00,55.9,51.8,29.99,ENE,64,1.0,4.0,86,0.00,BKN,,0.00,WeatherDisplay:10.37,2013-09-14 14:15:00,
2013-09-14 10:30:00,58.0,53.5,29.99,ENE,64,1.0,4.0,85,0.00,BKN,,0.00,WeatherDisplay:10.37,2013-09-14 14:30:00,
2013-09-14 10:45:00,59.7,53.8,29.98,ENE,64,1.0,3.0,81,0.00,SCT,,0.00,WeatherDisplay:10.37,2013-09-14 14:45:00,
2013-09-14 11:00:00,61.6,55.0,29.99,ENE,67,2.0,5.0,79,0.00,SCT,,0.00,WeatherDisplay:10.37,2013-09-14 15:00:00,
2013-09-14 11:15:00,62.9,55.6,29.98,ENE,74,1.0,5.0,77,0.00,SCT,,0.00,WeatherDisplay:10.37,2013-09-14 15:15:00,
2013-09-14 11:30:00,64.7,56.6,29.98,NE,56,2.0,5.0,75,0.00,SCT,,0.00,WeatherDisplay:10.37,2013-09-14 15:30:00,
2013-09-14 11:45:00,65.5,55.8,29.98,ENE,74,1.0,5.0,71,0.00,FEW,,0.00,WeatherDisplay:10.37,2013-09-14 15:45:00,
2013-09-14 12:00:00,67.4,56.8,29.98,NE,50,2.0,5.0,69,0.00,FEW,,0.00,WeatherDisplay:10.37,2013-09-14 16:00:00,
2013-09-14 12:15:00,68.0,57.1,29.98,NE,34,1.0,4.0,68,0.00,FEW,,0.00,WeatherDisplay:10.37,2013-09-14 16:15:00,
2013-09-14 12:30:00,69.4,57.5,29.98,NE,49,1.0,5.0,66,0.00,FEW,,0.00,WeatherDisplay:10.37,2013-09-14 16:30:00,
2013-09-14 12:45:00,69.6,54.2,29.98,ESE,105,2.0,7.0,58,0.00,CLR,,0.00,WeatherDisplay:10.37,2013-09-14 16:45:00,
2013-09-14 13:15:00,71.5,54.5,29.97,ENE,76,2.0,5.0,55,0.00,CLR,,0.00,WeatherDisplay:10.37,2013-09-14 17:15:00,
2013-09-14 13:30:00,71.3,55.3,29.97,NNW,348,1.0,6.0,57,0.00,CLR,,0.00,WeatherDisplay:10.37,2013-09-14 17:30:00,
2013-09-14 13:45:00,72.2,55.6,29.96,NE,39,3.0,5.0,56,0.00,CLR,,0.00,WeatherDisplay:10.37,2013-09-14 17:45:00,
2013-09-14 14:00:00,72.8,56.7,29.96,ENE,58,5.0,6.0,57,0.00,CLR,,0.00,WeatherDisplay:10.37,2013-09-14 18:00:00,
2013-09-14 14:15:00,73.3,55.6,29.95,ENE,61,1.0,9.0,54,0.00,CLR,,0.00,WeatherDisplay:10.37,2013-09-14 18:15:00,
2013-09-14 14:30:00,73.2,55.0,29.95,North,359,0.0,4.0,53,0.00,CLR,,0.00,WeatherDisplay:10.37,2013-09-14 18:30:00,
2013-09-14 14:45:00,73.3,57.2,29.95,ESE,108,0.0,4.0,57,0.00,CLR,,0.00,WeatherDisplay:10.37,2013-09-14 18:45:00,
2013-09-14 15:00:00,73.3,54.1,29.94,ENE,72,1.0,6.0,51,0.00,CLR,,0.00,WeatherDisplay:10.37,2013-09-14 19:00:00,
2013-09-14 15:15:00,73.4,55.8,29.94,SE,140,0.0,5.0,54,0.00,CLR,,0.00,WeatherDisplay:10.37,2013-09-14 19:15:00,
2013-09-14 15:30:00,74.0,56.8,29.94,West,265,0.0,3.0,55,0.00,CLR,,0.00,WeatherDisplay:10.37,2013-09-14 19:30:00,
2013-09-14 15:45:00,74.2,54.4,29.94,NW,314,1.0,3.0,50,0.00,CLR,,0.00,WeatherDisplay:10.37,2013-09-14 19:45:00,
2013-09-14 16:00:00,74.0,57.8,29.94,WNW,284,2.0,6.0,57,0.00,CLR,,0.00,WeatherDisplay:10.37,2013-09-14 20:00:00,
2013-09-14 16:15:00,74.4,56.7,29.94,WSW,256,0.0,5.0,54,0.00,CLR,,0.00,WeatherDisplay:10.37,2013-09-14 20:15:00,
2013-09-14 16:30:00,74.2,59.8,29.94,West,263,0.0,4.0,61,0.00,CLR,,0.00,WeatherDisplay:10.37,2013-09-14 20:30:00,
2013-09-14 16:45:00,72.5,60.1,29.95,West,263,1.0,4.0,65,0.00,CLR,,0.00,WeatherDisplay:10.37,2013-09-14 20:45:00,
2013-09-14 17:00:00,68.6,59.3,29.95,West,263,1.0,5.0,72,0.00,CLR,,0.00,WeatherDisplay:10.37,2013-09-14 21:00:00,
2013-09-14 17:15:00,67.7,59.9,29.95,West,263,1.0,4.0,76,0.00,CLR,,0.00,WeatherDisplay:10.37,2013-09-14 21:15:00,
2013-09-14 17:30:00,67.4,59.9,29.96,West,261,2.0,6.0,77,0.00,CLR,,0.00,WeatherDisplay:10.37,2013-09-14 21:30:00,
2013-09-14 17:45:00,66.6,59.9,29.96,West,262,1.0,5.0,79,0.00,CLR,,0.00,WeatherDisplay:10.37,2013-09-14 21:45:00,
2013-09-14 18:00:00,65.9,59.5,29.97,West,262,1.0,5.0,80,0.00,CLR,,0.00,WeatherDisplay:10.37,2013-09-14 22:00:00,
2013-09-14 18:15:00,65.4,59.1,29.97,West,265,0.0,5.0,80,0.00,CLR,,0.00,WeatherDisplay:10.37,2013-09-14 22:15:00,
2013-09-14 18:30:00,64.3,57.6,29.97,West,262,0.0,9.0,79,0.00,CLR,,0.00,WeatherDisplay:10.37,2013-09-14 22:30:00,
2013-09-14 18:45:00,63.4,57.8,29.97,West,261,2.0,6.0,82,0.00,BKN,,0.00,WeatherDisplay:10.37,2013-09-14 22:45:00,
2013-09-14 19:00:00,62.1,56.9,29.98,West,272,1.0,5.0,83,0.00,BKN,,0.00,WeatherDisplay:10.37,2013-09-14 23:00:00,
2013-09-14 19:15:00,61.3,56.4,29.98,West,271,0.0,4.0,84,0.00,BKN,,0.00,WeatherDisplay:10.37,2013-09-14 23:15:00,
2013-09-14 19:30:00,60.4,55.9,29.99,West,264,2.0,5.0,85,0.00,BKN,,0.00,WeatherDisplay:10.37,2013-09-14 23:30:00,
2013-09-14 19:45:00,59.5,55.0,29.99,West,260,1.0,5.0,85,0.00,SCT,,0.00,WeatherDisplay:10.37,2013-09-14 23:45:00,
2013-09-14 20:00:00,59.0,54.5,30.00,West,260,0.0,3.0,85,0.00,SCT,,0.00,WeatherDisplay:10.37,2013-09-15 00:00:00,
2013-09-14 20:15:00,58.5,54.4,30.00,West,260,0.0,0.0,86,0.00,SCT,,0.00,WeatherDisplay:10.37,2013-09-15 00:15:00,
2013-09-14 20:30:00,57.8,53.6,30.01,West,260,0.0,1.0,86,0.00,SCT,,0.00,WeatherDisplay:10.37,2013-09-15 00:30:00,
2013-09-14 20:45:00,57.0,52.8,30.01,West,260,0.0,1.0,86,0.00,CLR,,0.00,WeatherDisplay:10.37,2013-09-15 00:45:00,
2013-09-14 21:00:00,56.4,52.3,30.02,West,260,0.0,1.0,86,0.00,CLR,,0.00,WeatherDisplay:10.37,2013-09-15 01:00:00,
2013-09-14 21:15:00,55.9,51.8,30.03,West,260,0.0,0.0,86,0.00,CLR,,0.00,WeatherDisplay:10.37,2013-09-15 01:15:00,
2013-09-14 21:30:00,55.3,51.2,30.03,West,260,0.0,1.0,86,0.00,CLR,,0.00,WeatherDisplay:10.37,2013-09-15 01:30:00,
2013-09-14 21:45:00,54.9,50.8,30.04,West,260,0.0,0.0,86,0.00,CLR,,0.00,WeatherDisplay:10.37,2013-09-15 01:45:00,
2013-09-14 22:00:00,54.4,50.3,30.04,West,260,0.0,1.0,86,0.00,CLR,,0.00,WeatherDisplay:10.37,2013-09-15 02:00:00,
2013-09-14 22:15:00,54.1,50.3,30.04,West,260,0.0,0.0,87,0.00,CLR,,0.00,WeatherDisplay:10.37,2013-09-15 02:15:00,
2013-09-14 22:30:00,53.7,49.9,30.04,West,260,0.0,0.0,87,0.00,CLR,,0.00,WeatherDisplay:10.37,2013-09-15 02:30:00,
2013-09-14 22:45:00,53.2,49.5,30.04,West,260,0.0,0.0,87,0.00,CLR,,0.00,WeatherDisplay:10.37,2013-09-15 02:45:00,